sensor_id;sensor_type;location;lat;lon;timestamp;P1;durP1;ratioP1;P2;durP2;ratioP2
6133;SDS011;3098;42.678;23.364;2022-11-22T00:00:16;1.23;;;1.13;;
6133;SDS011;3098;42.678;23.364;2022-11-22T00:02:46;2.10;;;0.90;;
6133;SDS011;3098;42.678;23.364;2022-11-22T00:05:14;0.70;;;0.70;;
6133;SDS011;3098;42.678;23.364;2022-11-22T00:07:41;1.60;;;0.60;;
6133;SDS011;3098;42.678;23.364;2022-11-22T00:10:10;0.97;;;0.87;;
6133;SDS011;3098;42.678;23.364;2022-11-22T00:12:38;2.80;;;1.60;;
6133;SDS011;3098;42.678;23.364;2022-11-22T00:15:05;1.50;;;0.63;;
6133;SDS011;3098;42.678;23.364;2022-11-22T00:17:33;0.80;;;0.80;;
6133;SDS011;3098;42.678;23.364;2022-11-22T00:20:02;1.33;;;0.83;;
6133;SDS011;3098;42.678;23.364;2022-11-22T00:22:30;1.20;;;0.57;;
6133;SDS011;3098;42.678;23.364;2022-11-22T00:24:58;0.60;;;0.60;;
6133;SDS011;3098;42.678;23.364;2022-11-22T00:27:25;1.47;;;0.80;;
6133;SDS011;3098;42.678;23.364;2022-11-22T00:29:52;0.63;;;0.63;;
6133;SDS011;3098;42.678;23.364;2022-11-22T00:32:20;3.90;;;1.37;;
6133;SDS011;3098;42.678;23.364;2022-11-22T00:34:47;0.70;;;0.70;;
6133;SDS011;3098;42.678;23.364;2022-11-22T00:37:15;1.17;;;0.80;;
6133;SDS011;3098;42.678;23.364;2022-11-22T00:39:44;2.30;;;1.50;;
6133;SDS011;3098;42.678;23.364;2022-11-22T00:42:11;1.07;;;0.90;;
6133;SDS011;3098;42.678;23.364;2022-11-22T00:44:41;1.77;;;0.50;;
6133;SDS011;3098;42.678;23.364;2022-11-22T00:47:10;0.93;;;0.93;;
6133;SDS011;3098;42.678;23.364;2022-11-22T00:49:37;1.70;;;0.93;;
6133;SDS011;3098;42.678;23.364;2022-11-22T00:52:05;2.30;;;1.20;;
6133;SDS011;3098;42.678;23.364;2022-11-22T00:54:34;1.97;;;1.20;;
6133;SDS011;3098;42.678;23.364;2022-11-22T00:57:00;3.80;;;1.30;;
6133;SDS011;3098;42.678;23.364;2022-11-22T00:59:28;2.17;;;1.50;;
6133;SDS011;3098;42.678;23.364;2022-11-22T01:01:55;0.80;;;0.37;;
6133;SDS011;3098;42.678;23.364;2022-11-22T01:04:22;3.00;;;1.40;;
6133;SDS011;3098;42.678;23.364;2022-11-22T01:06:49;1.03;;;0.93;;
6133;SDS011;3098;42.678;23.364;2022-11-22T01:09:17;2.57;;;1.40;;
6133;SDS011;3098;42.678;23.364;2022-11-22T01:11:47;1.50;;;0.90;;
6133;SDS011;3098;42.678;23.364;2022-11-22T01:14:15;1.27;;;1.13;;
6133;SDS011;3098;42.678;23.364;2022-11-22T01:16:44;2.23;;;1.13;;
6133;SDS011;3098;42.678;23.364;2022-11-22T01:19:11;1.93;;;1.07;;
6133;SDS011;3098;42.678;23.364;2022-11-22T01:21:38;3.30;;;1.73;;
6133;SDS011;3098;42.678;23.364;2022-11-22T01:24:06;2.80;;;0.90;;
6133;SDS011;3098;42.678;23.364;2022-11-22T01:26:33;1.53;;;1.40;;
6133;SDS011;3098;42.678;23.364;2022-11-22T01:29:02;1.13;;;1.00;;
6133;SDS011;3098;42.678;23.364;2022-11-22T01:31:30;1.83;;;1.47;;
6133;SDS011;3098;42.678;23.364;2022-11-22T01:33:57;1.67;;;1.37;;
6133;SDS011;3098;42.678;23.364;2022-11-22T01:36:25;3.30;;;1.60;;
6133;SDS011;3098;42.678;23.364;2022-11-22T01:38:52;1.33;;;1.10;;
6133;SDS011;3098;42.678;23.364;2022-11-22T01:41:19;1.43;;;1.13;;
6133;SDS011;3098;42.678;23.364;2022-11-22T01:43:46;1.73;;;1.40;;
6133;SDS011;3098;42.678;23.364;2022-11-22T01:46:20;0.80;;;0.77;;
6133;SDS011;3098;42.678;23.364;2022-11-22T01:48:57;1.97;;;1.10;;
6133;SDS011;3098;42.678;23.364;2022-11-22T01:51:29;4.20;;;2.13;;
6133;SDS011;3098;42.678;23.364;2022-11-22T01:54:04;1.60;;;0.87;;
6133;SDS011;3098;42.678;23.364;2022-11-22T01:56:36;0.73;;;0.60;;
6133;SDS011;3098;42.678;23.364;2022-11-22T01:59:09;1.20;;;1.03;;
6133;SDS011;3098;42.678;23.364;2022-11-22T02:01:44;4.53;;;1.27;;
6133;SDS011;3098;42.678;23.364;2022-11-22T02:04:18;2.60;;;1.63;;
6133;SDS011;3098;42.678;23.364;2022-11-22T02:06:50;5.23;;;1.80;;
6133;SDS011;3098;42.678;23.364;2022-11-22T02:09:23;1.50;;;1.40;;
6133;SDS011;3098;42.678;23.364;2022-11-22T02:11:51;1.57;;;1.47;;
6133;SDS011;3098;42.678;23.364;2022-11-22T02:14:23;2.07;;;1.33;;
6133;SDS011;3098;42.678;23.364;2022-11-22T02:16:55;2.30;;;1.37;;
6133;SDS011;3098;42.678;23.364;2022-11-22T02:19:26;3.20;;;1.77;;
6133;SDS011;3098;42.678;23.364;2022-11-22T02:22:04;2.17;;;1.00;;
6133;SDS011;3098;42.678;23.364;2022-11-22T02:24:43;1.30;;;0.97;;
6133;SDS011;3098;42.678;23.364;2022-11-22T02:27:17;1.20;;;0.97;;
6133;SDS011;3098;42.678;23.364;2022-11-22T02:29:45;11.93;;;1.67;;
6133;SDS011;3098;42.678;23.364;2022-11-22T02:32:13;1.73;;;1.43;;
6133;SDS011;3098;42.678;23.364;2022-11-22T02:34:42;1.50;;;0.80;;
6133;SDS011;3098;42.678;23.364;2022-11-22T02:37:15;1.97;;;1.33;;
6133;SDS011;3098;42.678;23.364;2022-11-22T02:39:49;2.33;;;1.60;;
6133;SDS011;3098;42.678;23.364;2022-11-22T02:42:28;4.47;;;1.43;;
6133;SDS011;3098;42.678;23.364;2022-11-22T02:45:00;2.63;;;1.53;;
6133;SDS011;3098;42.678;23.364;2022-11-22T02:47:31;1.20;;;1.10;;
6133;SDS011;3098;42.678;23.364;2022-11-22T02:50:00;4.83;;;1.73;;
6133;SDS011;3098;42.678;23.364;2022-11-22T02:52:30;2.30;;;1.57;;
6133;SDS011;3098;42.678;23.364;2022-11-22T02:54:59;3.47;;;1.57;;
6133;SDS011;3098;42.678;23.364;2022-11-22T02:57:28;1.40;;;1.27;;
6133;SDS011;3098;42.678;23.364;2022-11-22T02:59:55;2.93;;;1.50;;
6133;SDS011;3098;42.678;23.364;2022-11-22T03:02:22;2.97;;;0.87;;
6133;SDS011;3098;42.678;23.364;2022-11-22T03:04:48;3.23;;;1.87;;
6133;SDS011;3098;42.678;23.364;2022-11-22T03:07:15;1.30;;;0.90;;
6133;SDS011;3098;42.678;23.364;2022-11-22T03:09:42;1.27;;;0.93;;
6133;SDS011;3098;42.678;23.364;2022-11-22T03:12:09;1.00;;;0.90;;
6133;SDS011;3098;42.678;23.364;2022-11-22T03:14:38;1.87;;;1.10;;
6133;SDS011;3098;42.678;23.364;2022-11-22T03:17:04;1.83;;;1.30;;
6133;SDS011;3098;42.678;23.364;2022-11-22T03:19:33;1.33;;;1.17;;
6133;SDS011;3098;42.678;23.364;2022-11-22T03:21:59;4.20;;;0.90;;
6133;SDS011;3098;42.678;23.364;2022-11-22T03:24:26;5.03;;;0.77;;
6133;SDS011;3098;42.678;23.364;2022-11-22T03:26:54;2.70;;;2.00;;
6133;SDS011;3098;42.678;23.364;2022-11-22T03:29:21;2.33;;;1.43;;
6133;SDS011;3098;42.678;23.364;2022-11-22T03:31:49;2.77;;;1.40;;
6133;SDS011;3098;42.678;23.364;2022-11-22T03:34:16;0.63;;;0.63;;
6133;SDS011;3098;42.678;23.364;2022-11-22T03:36:43;1.57;;;1.07;;
6133;SDS011;3098;42.678;23.364;2022-11-22T03:39:10;1.90;;;1.27;;
6133;SDS011;3098;42.678;23.364;2022-11-22T03:41:37;1.17;;;0.97;;
6133;SDS011;3098;42.678;23.364;2022-11-22T03:44:04;2.30;;;1.23;;
6133;SDS011;3098;42.678;23.364;2022-11-22T03:46:31;2.23;;;1.77;;
6133;SDS011;3098;42.678;23.364;2022-11-22T03:48:59;1.23;;;1.13;;
6133;SDS011;3098;42.678;23.364;2022-11-22T03:51:27;2.93;;;1.83;;
6133;SDS011;3098;42.678;23.364;2022-11-22T03:53:54;5.97;;;1.60;;
6133;SDS011;3098;42.678;23.364;2022-11-22T03:56:21;1.43;;;1.00;;
6133;SDS011;3098;42.678;23.364;2022-11-22T03:58:48;1.60;;;1.50;;
6133;SDS011;3098;42.678;23.364;2022-11-22T04:01:15;2.30;;;1.83;;
6133;SDS011;3098;42.678;23.364;2022-11-22T04:03:42;1.70;;;1.27;;
6133;SDS011;3098;42.678;23.364;2022-11-22T04:06:10;3.07;;;1.67;;
6133;SDS011;3098;42.678;23.364;2022-11-22T04:08:37;2.77;;;1.33;;
6133;SDS011;3098;42.678;23.364;2022-11-22T04:11:04;3.67;;;1.23;;
6133;SDS011;3098;42.678;23.364;2022-11-22T04:13:32;1.20;;;1.10;;
6133;SDS011;3098;42.678;23.364;2022-11-22T04:16:13;0.90;;;0.90;;
6133;SDS011;3098;42.678;23.364;2022-11-22T04:18:40;3.33;;;1.90;;
6133;SDS011;3098;42.678;23.364;2022-11-22T04:21:07;9.43;;;2.40;;
6133;SDS011;3098;42.678;23.364;2022-11-22T04:23:53;9.50;;;1.70;;
6133;SDS011;3098;42.678;23.364;2022-11-22T04:26:34;1.27;;;1.17;;
6133;SDS011;3098;42.678;23.364;2022-11-22T04:29:01;5.10;;;1.60;;
6133;SDS011;3098;42.678;23.364;2022-11-22T04:31:29;3.13;;;2.00;;
6133;SDS011;3098;42.678;23.364;2022-11-22T04:34:14;0.93;;;0.83;;
6133;SDS011;3098;42.678;23.364;2022-11-22T04:36:41;2.23;;;1.67;;
6133;SDS011;3098;42.678;23.364;2022-11-22T04:39:10;2.13;;;1.30;;
6133;SDS011;3098;42.678;23.364;2022-11-22T04:41:38;3.07;;;1.53;;
6133;SDS011;3098;42.678;23.364;2022-11-22T04:44:05;0.50;;;0.50;;
6133;SDS011;3098;42.678;23.364;2022-11-22T04:46:58;1.73;;;1.60;;
6133;SDS011;3098;42.678;23.364;2022-11-22T04:49:25;2.13;;;1.30;;
6133;SDS011;3098;42.678;23.364;2022-11-22T04:51:52;2.23;;;1.70;;
6133;SDS011;3098;42.678;23.364;2022-11-22T04:54:38;2.13;;;1.60;;
6133;SDS011;3098;42.678;23.364;2022-11-22T04:57:05;2.97;;;1.67;;
6133;SDS011;3098;42.678;23.364;2022-11-22T04:59:33;1.10;;;1.10;;
6133;SDS011;3098;42.678;23.364;2022-11-22T05:02:00;2.57;;;1.83;;
6133;SDS011;3098;42.678;23.364;2022-11-22T05:04:27;2.07;;;1.50;;
6133;SDS011;3098;42.678;23.364;2022-11-22T05:06:55;0.87;;;0.87;;
6133;SDS011;3098;42.678;23.364;2022-11-22T05:09:22;1.10;;;0.90;;
6133;SDS011;3098;42.678;23.364;2022-11-22T05:11:51;1.27;;;1.17;;
6133;SDS011;3098;42.678;23.364;2022-11-22T05:14:18;5.70;;;2.40;;
6133;SDS011;3098;42.678;23.364;2022-11-22T05:16:45;2.43;;;1.27;;
6133;SDS011;3098;42.678;23.364;2022-11-22T05:19:12;1.93;;;1.60;;
6133;SDS011;3098;42.678;23.364;2022-11-22T05:21:39;3.33;;;1.97;;
6133;SDS011;3098;42.678;23.364;2022-11-22T05:24:06;2.00;;;1.90;;
6133;SDS011;3098;42.678;23.364;2022-11-22T05:26:33;2.87;;;2.23;;
6133;SDS011;3098;42.678;23.364;2022-11-22T05:29:04;2.00;;;1.77;;
6133;SDS011;3098;42.678;23.364;2022-11-22T05:31:32;2.43;;;1.63;;
6133;SDS011;3098;42.678;23.364;2022-11-22T05:34:00;2.63;;;2.13;;
6133;SDS011;3098;42.678;23.364;2022-11-22T05:36:29;3.50;;;1.90;;
6133;SDS011;3098;42.678;23.364;2022-11-22T05:38:57;3.87;;;1.93;;
6133;SDS011;3098;42.678;23.364;2022-11-22T05:41:24;4.03;;;1.67;;
6133;SDS011;3098;42.678;23.364;2022-11-22T05:43:52;3.33;;;2.13;;
6133;SDS011;3098;42.678;23.364;2022-11-22T05:46:22;3.27;;;2.93;;
6133;SDS011;3098;42.678;23.364;2022-11-22T05:48:51;4.37;;;2.13;;
6133;SDS011;3098;42.678;23.364;2022-11-22T05:51:19;5.60;;;2.60;;
6133;SDS011;3098;42.678;23.364;2022-11-22T05:53:49;10.07;;;3.10;;
6133;SDS011;3098;42.678;23.364;2022-11-22T05:56:16;5.50;;;3.25;;
6133;SDS011;3098;42.678;23.364;2022-11-22T05:58:44;5.40;;;2.78;;
6133;SDS011;3098;42.678;23.364;2022-11-22T06:01:13;5.97;;;3.15;;
6133;SDS011;3098;42.678;23.364;2022-11-22T06:03:42;8.45;;;3.60;;
6133;SDS011;3098;42.678;23.364;2022-11-22T06:06:09;9.88;;;3.70;;
6133;SDS011;3098;42.678;23.364;2022-11-22T06:08:38;7.00;;;3.30;;
6133;SDS011;3098;42.678;23.364;2022-11-22T06:11:11;5.10;;;3.58;;
6133;SDS011;3098;42.678;23.364;2022-11-22T06:13:40;7.55;;;3.13;;
6133;SDS011;3098;42.678;23.364;2022-11-22T06:16:09;4.57;;;2.80;;
6133;SDS011;3098;42.678;23.364;2022-11-22T06:18:37;4.05;;;2.88;;
6133;SDS011;3098;42.678;23.364;2022-11-22T06:21:06;11.32;;;3.45;;
6133;SDS011;3098;42.678;23.364;2022-11-22T06:23:35;7.18;;;3.45;;
6133;SDS011;3098;42.678;23.364;2022-11-22T06:26:03;5.03;;;3.03;;
6133;SDS011;3098;42.678;23.364;2022-11-22T06:28:33;4.18;;;3.05;;
6133;SDS011;3098;42.678;23.364;2022-11-22T06:31:01;6.07;;;3.38;;
6133;SDS011;3098;42.678;23.364;2022-11-22T06:33:30;9.43;;;4.10;;
6133;SDS011;3098;42.678;23.364;2022-11-22T06:36:00;5.07;;;3.25;;
6133;SDS011;3098;42.678;23.364;2022-11-22T06:38:30;2.90;;;2.38;;
6133;SDS011;3098;42.678;23.364;2022-11-22T06:41:00;4.88;;;2.33;;
6133;SDS011;3098;42.678;23.364;2022-11-22T06:43:43;4.55;;;2.58;;
6133;SDS011;3098;42.678;23.364;2022-11-22T06:46:12;4.72;;;2.30;;
6133;SDS011;3098;42.678;23.364;2022-11-22T06:48:40;4.07;;;2.38;;
6133;SDS011;3098;42.678;23.364;2022-11-22T06:51:09;5.88;;;2.85;;
6133;SDS011;3098;42.678;23.364;2022-11-22T06:53:38;5.50;;;2.75;;
6133;SDS011;3098;42.678;23.364;2022-11-22T06:56:07;5.95;;;2.70;;
6133;SDS011;3098;42.678;23.364;2022-11-22T06:58:35;10.68;;;3.33;;
6133;SDS011;3098;42.678;23.364;2022-11-22T07:01:04;7.40;;;2.70;;
6133;SDS011;3098;42.678;23.364;2022-11-22T07:03:33;6.68;;;2.60;;
6133;SDS011;3098;42.678;23.364;2022-11-22T07:06:01;4.95;;;2.30;;
6133;SDS011;3098;42.678;23.364;2022-11-22T07:08:28;6.72;;;3.35;;
6133;SDS011;3098;42.678;23.364;2022-11-22T07:11:01;6.60;;;3.08;;
6133;SDS011;3098;42.678;23.364;2022-11-22T07:13:29;4.57;;;2.45;;
6133;SDS011;3098;42.678;23.364;2022-11-22T07:15:57;8.73;;;3.03;;
6133;SDS011;3098;42.678;23.364;2022-11-22T07:18:27;5.10;;;2.70;;
6133;SDS011;3098;42.678;23.364;2022-11-22T07:20:58;4.90;;;2.50;;
6133;SDS011;3098;42.678;23.364;2022-11-22T07:23:27;7.78;;;3.78;;
6133;SDS011;3098;42.678;23.364;2022-11-22T07:25:54;8.00;;;2.90;;
6133;SDS011;3098;42.678;23.364;2022-11-22T07:28:24;4.03;;;2.35;;
6133;SDS011;3098;42.678;23.364;2022-11-22T07:30:52;4.88;;;2.65;;
6133;SDS011;3098;42.678;23.364;2022-11-22T07:33:24;5.85;;;2.85;;
6133;SDS011;3098;42.678;23.364;2022-11-22T07:35:51;5.00;;;2.70;;
6133;SDS011;3098;42.678;23.364;2022-11-22T07:38:19;5.50;;;3.58;;
6133;SDS011;3098;42.678;23.364;2022-11-22T07:40:46;7.88;;;2.55;;
6133;SDS011;3098;42.678;23.364;2022-11-22T07:43:14;5.28;;;3.13;;
6133;SDS011;3098;42.678;23.364;2022-11-22T07:45:43;5.20;;;2.80;;
6133;SDS011;3098;42.678;23.364;2022-11-22T07:48:10;7.82;;;3.25;;
6133;SDS011;3098;42.678;23.364;2022-11-22T07:50:39;5.15;;;2.53;;
6133;SDS011;3098;42.678;23.364;2022-11-22T07:53:06;7.57;;;3.50;;
6133;SDS011;3098;42.678;23.364;2022-11-22T07:55:34;7.40;;;3.70;;
6133;SDS011;3098;42.678;23.364;2022-11-22T07:58:02;10.98;;;4.78;;
6133;SDS011;3098;42.678;23.364;2022-11-22T08:00:29;6.93;;;3.72;;
6133;SDS011;3098;42.678;23.364;2022-11-22T08:02:58;6.20;;;3.38;;
6133;SDS011;3098;42.678;23.364;2022-11-22T08:05:25;5.28;;;2.92;;
6133;SDS011;3098;42.678;23.364;2022-11-22T08:07:52;5.47;;;3.00;;
6133;SDS011;3098;42.678;23.364;2022-11-22T08:10:19;7.05;;;3.85;;
6133;SDS011;3098;42.678;23.364;2022-11-22T08:12:47;5.40;;;3.35;;
6133;SDS011;3098;42.678;23.364;2022-11-22T08:15:14;9.60;;;3.38;;
6133;SDS011;3098;42.678;23.364;2022-11-22T08:17:42;8.27;;;3.97;;
6133;SDS011;3098;42.678;23.364;2022-11-22T08:20:11;6.80;;;3.30;;
6133;SDS011;3098;42.678;23.364;2022-11-22T08:22:38;7.15;;;3.80;;
6133;SDS011;3098;42.678;23.364;2022-11-22T08:25:06;9.02;;;4.55;;
6133;SDS011;3098;42.678;23.364;2022-11-22T08:27:37;16.58;;;4.35;;
6133;SDS011;3098;42.678;23.364;2022-11-22T08:30:05;8.60;;;4.10;;
6133;SDS011;3098;42.678;23.364;2022-11-22T08:32:33;8.90;;;4.13;;
6133;SDS011;3098;42.678;23.364;2022-11-22T08:35:01;9.13;;;3.38;;
6133;SDS011;3098;42.678;23.364;2022-11-22T08:37:30;4.97;;;3.28;;
6133;SDS011;3098;42.678;23.364;2022-11-22T08:39:58;4.53;;;2.60;;
6133;SDS011;3098;42.678;23.364;2022-11-22T08:42:25;4.22;;;2.63;;
6133;SDS011;3098;42.678;23.364;2022-11-22T08:44:53;4.93;;;3.17;;
6133;SDS011;3098;42.678;23.364;2022-11-22T08:47:19;5.88;;;2.90;;
6133;SDS011;3098;42.678;23.364;2022-11-22T08:49:47;6.00;;;3.03;;
6133;SDS011;3098;42.678;23.364;2022-11-22T08:52:14;7.15;;;3.60;;
6133;SDS011;3098;42.678;23.364;2022-11-22T08:54:44;9.80;;;4.28;;
6133;SDS011;3098;42.678;23.364;2022-11-22T08:57:11;7.18;;;3.33;;
6133;SDS011;3098;42.678;23.364;2022-11-22T08:59:39;6.83;;;3.40;;
6133;SDS011;3098;42.678;23.364;2022-11-22T09:02:07;8.70;;;3.67;;
6133;SDS011;3098;42.678;23.364;2022-11-22T09:04:34;5.13;;;2.78;;
6133;SDS011;3098;42.678;23.364;2022-11-22T09:07:02;10.60;;;3.80;;
6133;SDS011;3098;42.678;23.364;2022-11-22T09:09:29;5.72;;;3.05;;
6133;SDS011;3098;42.678;23.364;2022-11-22T09:11:59;8.40;;;3.17;;
6133;SDS011;3098;42.678;23.364;2022-11-22T09:14:26;6.87;;;2.83;;
6133;SDS011;3098;42.678;23.364;2022-11-22T09:16:53;7.83;;;3.30;;
6133;SDS011;3098;42.678;23.364;2022-11-22T09:19:20;4.47;;;3.00;;
6133;SDS011;3098;42.678;23.364;2022-11-22T09:21:47;5.10;;;2.97;;
6133;SDS011;3098;42.678;23.364;2022-11-22T09:24:14;7.93;;;2.90;;
6133;SDS011;3098;42.678;23.364;2022-11-22T09:26:43;4.30;;;2.97;;
6133;SDS011;3098;42.678;23.364;2022-11-22T09:29:12;10.40;;;3.42;;
6133;SDS011;3098;42.678;23.364;2022-11-22T09:31:41;7.05;;;2.42;;
6133;SDS011;3098;42.678;23.364;2022-11-22T09:34:14;6.88;;;2.47;;
6133;SDS011;3098;42.678;23.364;2022-11-22T09:36:42;10.18;;;2.38;;
6133;SDS011;3098;42.678;23.364;2022-11-22T09:39:17;27.08;;;3.15;;
6133;SDS011;3098;42.678;23.364;2022-11-22T09:44:48;3.45;;;1.85;;
6133;SDS011;3098;42.678;23.364;2022-11-22T09:47:36;4.68;;;2.22;;
6133;SDS011;3098;42.678;23.364;2022-11-22T09:50:10;6.35;;;3.17;;
6133;SDS011;3098;42.678;23.364;2022-11-22T09:52:47;3.83;;;2.95;;
6133;SDS011;3098;42.678;23.364;2022-11-22T09:55:22;5.38;;;2.42;;
6133;SDS011;3098;42.678;23.364;2022-11-22T09:57:58;6.22;;;2.38;;
6133;SDS011;3098;42.678;23.364;2022-11-22T10:00:35;8.15;;;3.40;;
6133;SDS011;3098;42.678;23.364;2022-11-22T10:03:04;8.80;;;3.22;;
6133;SDS011;3098;42.678;23.364;2022-11-22T10:05:40;6.28;;;3.42;;
6133;SDS011;3098;42.678;23.364;2022-11-22T10:08:18;9.20;;;4.63;;
6133;SDS011;3098;42.678;23.364;2022-11-22T10:10:53;6.47;;;2.25;;
6133;SDS011;3098;42.678;23.364;2022-11-22T10:13:26;7.55;;;3.13;;
6133;SDS011;3098;42.678;23.364;2022-11-22T10:16:03;5.43;;;2.55;;
6133;SDS011;3098;42.678;23.364;2022-11-22T10:18:43;4.63;;;2.05;;
6133;SDS011;3098;42.678;23.364;2022-11-22T10:21:16;6.72;;;3.13;;
6133;SDS011;3098;42.678;23.364;2022-11-22T10:23:47;5.15;;;2.50;;
6133;SDS011;3098;42.678;23.364;2022-11-22T10:26:18;8.15;;;2.88;;
6133;SDS011;3098;42.678;23.364;2022-11-22T10:28:52;6.65;;;3.00;;
6133;SDS011;3098;42.678;23.364;2022-11-22T10:31:38;5.65;;;2.25;;
6133;SDS011;3098;42.678;23.364;2022-11-22T10:34:15;2.70;;;1.70;;
6133;SDS011;3098;42.678;23.364;2022-11-22T10:36:53;2.80;;;2.03;;
6133;SDS011;3098;42.678;23.364;2022-11-22T10:39:36;2.25;;;1.77;;
6133;SDS011;3098;42.678;23.364;2022-11-22T10:42:24;3.05;;;2.38;;
6133;SDS011;3098;42.678;23.364;2022-11-22T10:45:10;5.07;;;1.83;;
6133;SDS011;3098;42.678;23.364;2022-11-22T10:47:47;3.30;;;1.70;;
6133;SDS011;3098;42.678;23.364;2022-11-22T10:50:24;2.53;;;1.48;;
6133;SDS011;3098;42.678;23.364;2022-11-22T10:52:59;4.82;;;2.50;;
6133;SDS011;3098;42.678;23.364;2022-11-22T10:55:37;4.72;;;1.77;;
6133;SDS011;3098;42.678;23.364;2022-11-22T10:58:20;2.70;;;1.88;;
6133;SDS011;3098;42.678;23.364;2022-11-22T11:00:58;3.85;;;1.95;;
6133;SDS011;3098;42.678;23.364;2022-11-22T11:03:34;3.88;;;1.85;;
6133;SDS011;3098;42.678;23.364;2022-11-22T11:06:06;2.55;;;1.70;;
6133;SDS011;3098;42.678;23.364;2022-11-22T11:08:41;2.55;;;1.88;;
6133;SDS011;3098;42.678;23.364;2022-11-22T11:11:11;6.32;;;1.73;;
6133;SDS011;3098;42.678;23.364;2022-11-22T11:13:40;5.20;;;2.28;;
6133;SDS011;3098;42.678;23.364;2022-11-22T11:16:14;3.90;;;2.28;;
6133;SDS011;3098;42.678;23.364;2022-11-22T11:18:47;6.82;;;2.60;;
6133;SDS011;3098;42.678;23.364;2022-11-22T11:21:21;5.30;;;2.50;;
6133;SDS011;3098;42.678;23.364;2022-11-22T11:23:50;2.92;;;1.75;;
6133;SDS011;3098;42.678;23.364;2022-11-22T11:26:18;1.77;;;1.52;;
6133;SDS011;3098;42.678;23.364;2022-11-22T11:28:49;1.98;;;1.33;;
6133;SDS011;3098;42.678;23.364;2022-11-22T11:31:16;2.75;;;1.40;;
6133;SDS011;3098;42.678;23.364;2022-11-22T11:33:47;3.97;;;2.03;;
6133;SDS011;3098;42.678;23.364;2022-11-22T11:36:15;4.80;;;1.90;;
6133;SDS011;3098;42.678;23.364;2022-11-22T11:38:49;4.32;;;1.67;;
6133;SDS011;3098;42.678;23.364;2022-11-22T11:41:21;4.82;;;1.77;;
6133;SDS011;3098;42.678;23.364;2022-11-22T11:43:55;4.53;;;2.28;;
6133;SDS011;3098;42.678;23.364;2022-11-22T11:46:24;2.67;;;1.60;;
6133;SDS011;3098;42.678;23.364;2022-11-22T11:48:55;7.07;;;2.42;;
6133;SDS011;3098;42.678;23.364;2022-11-22T11:51:36;4.30;;;2.25;;
6133;SDS011;3098;42.678;23.364;2022-11-22T11:54:10;3.10;;;1.50;;
6133;SDS011;3098;42.678;23.364;2022-11-22T11:56:45;1.90;;;1.40;;
6133;SDS011;3098;42.678;23.364;2022-11-22T11:59:19;2.95;;;2.03;;
6133;SDS011;3098;42.678;23.364;2022-11-22T12:01:52;3.97;;;1.58;;
6133;SDS011;3098;42.678;23.364;2022-11-22T12:04:25;5.05;;;3.28;;
6133;SDS011;3098;42.678;23.364;2022-11-22T12:06:56;5.65;;;3.22;;
6133;SDS011;3098;42.678;23.364;2022-11-22T12:09:29;6.40;;;2.00;;
6133;SDS011;3098;42.678;23.364;2022-11-22T12:12:06;2.35;;;1.83;;
6133;SDS011;3098;42.678;23.364;2022-11-22T12:14:39;10.43;;;2.30;;
6133;SDS011;3098;42.678;23.364;2022-11-22T12:17:10;3.35;;;1.52;;
6133;SDS011;3098;42.678;23.364;2022-11-22T12:19:48;5.30;;;1.90;;
6133;SDS011;3098;42.678;23.364;2022-11-22T12:22:24;4.93;;;2.30;;
6133;SDS011;3098;42.678;23.364;2022-11-22T12:25:08;10.13;;;2.97;;
6133;SDS011;3098;42.678;23.364;2022-11-22T12:27:48;7.57;;;2.78;;
6133;SDS011;3098;42.678;23.364;2022-11-22T12:30:25;5.10;;;2.95;;
6133;SDS011;3098;42.678;23.364;2022-11-22T12:32:55;3.37;;;2.67;;
6133;SDS011;3098;42.678;23.364;2022-11-22T12:35:27;3.72;;;2.17;;
6133;SDS011;3098;42.678;23.364;2022-11-22T12:37:59;3.92;;;2.80;;
6133;SDS011;3098;42.678;23.364;2022-11-22T12:40:37;3.73;;;2.40;;
6133;SDS011;3098;42.678;23.364;2022-11-22T12:43:10;3.55;;;2.47;;
6133;SDS011;3098;42.678;23.364;2022-11-22T12:45:44;5.33;;;2.80;;
6133;SDS011;3098;42.678;23.364;2022-11-22T12:48:17;3.47;;;2.53;;
6133;SDS011;3098;42.678;23.364;2022-11-22T12:50:56;4.30;;;2.67;;
6133;SDS011;3098;42.678;23.364;2022-11-22T12:53:28;6.75;;;3.22;;
6133;SDS011;3098;42.678;23.364;2022-11-22T12:56:01;6.30;;;2.47;;
6133;SDS011;3098;42.678;23.364;2022-11-22T12:58:36;5.10;;;3.03;;
6133;SDS011;3098;42.678;23.364;2022-11-22T13:01:08;8.27;;;3.90;;
6133;SDS011;3098;42.678;23.364;2022-11-22T13:03:43;8.03;;;3.43;;
6133;SDS011;3098;42.678;23.364;2022-11-22T13:06:20;8.70;;;4.37;;
6133;SDS011;3098;42.678;23.364;2022-11-22T13:08:53;8.13;;;4.65;;
6133;SDS011;3098;42.678;23.364;2022-11-22T13:11:26;7.13;;;4.23;;
6133;SDS011;3098;42.678;23.364;2022-11-22T13:13:59;10.38;;;4.60;;
6133;SDS011;3098;42.678;23.364;2022-11-22T13:16:31;20.02;;;4.35;;
6133;SDS011;3098;42.678;23.364;2022-11-22T13:18:59;12.55;;;5.70;;
6133;SDS011;3098;42.678;23.364;2022-11-22T13:21:32;11.47;;;5.03;;
6133;SDS011;3098;42.678;23.364;2022-11-22T13:24:12;12.53;;;5.73;;
6133;SDS011;3098;42.678;23.364;2022-11-22T13:26:56;13.30;;;5.45;;
6133;SDS011;3098;42.678;23.364;2022-11-22T13:29:31;9.98;;;4.68;;
6133;SDS011;3098;42.678;23.364;2022-11-22T13:32:01;13.40;;;5.27;;
6133;SDS011;3098;42.678;23.364;2022-11-22T13:34:31;8.27;;;4.28;;
6133;SDS011;3098;42.678;23.364;2022-11-22T13:37:06;13.57;;;6.63;;
6133;SDS011;3098;42.678;23.364;2022-11-22T13:39:37;16.40;;;5.80;;
6133;SDS011;3098;42.678;23.364;2022-11-22T13:42:10;13.30;;;5.77;;
6133;SDS011;3098;42.678;23.364;2022-11-22T13:44:50;7.77;;;5.23;;
6133;SDS011;3098;42.678;23.364;2022-11-22T13:47:34;8.00;;;3.90;;
6133;SDS011;3098;42.678;23.364;2022-11-22T13:53:16;16.07;;;3.63;;
6133;SDS011;3098;42.678;23.364;2022-11-22T13:55:47;11.70;;;4.20;;
6133;SDS011;3098;42.678;23.364;2022-11-22T14:04:25;10.48;;;4.93;;
6133;SDS011;3098;42.678;23.364;2022-11-22T14:06:59;13.33;;;5.80;;
6133;SDS011;3098;42.678;23.364;2022-11-22T14:09:38;10.73;;;5.17;;
6133;SDS011;3098;42.678;23.364;2022-11-22T14:12:15;5.47;;;3.50;;
6133;SDS011;3098;42.678;23.364;2022-11-22T14:15:03;9.23;;;5.37;;
6133;SDS011;3098;42.678;23.364;2022-11-22T14:17:46;9.02;;;5.03;;
6133;SDS011;3098;42.678;23.364;2022-11-22T14:20:25;11.68;;;4.20;;
6133;SDS011;3098;42.678;23.364;2022-11-22T14:23:01;16.23;;;5.47;;
6133;SDS011;3098;42.678;23.364;2022-11-22T14:25:44;16.00;;;6.07;;
6133;SDS011;3098;42.678;23.364;2022-11-22T14:31:26;12.75;;;5.25;;
6133;SDS011;3098;42.678;23.364;2022-11-22T14:34:14;9.37;;;6.30;;
6133;SDS011;3098;42.678;23.364;2022-11-22T14:36:43;10.57;;;6.00;;
6133;SDS011;3098;42.678;23.364;2022-11-22T14:45:17;11.43;;;6.03;;
6133;SDS011;3098;42.678;23.364;2022-11-22T14:47:52;11.17;;;5.50;;
6133;SDS011;3098;42.678;23.364;2022-11-22T14:50:29;16.57;;;5.73;;
6133;SDS011;3098;42.678;23.364;2022-11-22T14:53:03;13.53;;;6.90;;
6133;SDS011;3098;42.678;23.364;2022-11-22T14:55:41;19.85;;;7.25;;
6133;SDS011;3098;42.678;23.364;2022-11-22T14:58:10;10.70;;;4.90;;
6133;SDS011;3098;42.678;23.364;2022-11-22T15:00:44;7.40;;;4.10;;
6133;SDS011;3098;42.678;23.364;2022-11-22T15:03:39;15.90;;;5.53;;
6133;SDS011;3098;42.678;23.364;2022-11-22T15:06:26;11.67;;;5.47;;
6133;SDS011;3098;42.678;23.364;2022-11-22T15:09:07;9.10;;;4.05;;
6133;SDS011;3098;42.678;23.364;2022-11-22T15:12:07;11.63;;;5.73;;
6133;SDS011;3098;42.678;23.364;2022-11-22T15:15:10;14.30;;;5.05;;
6133;SDS011;3098;42.678;23.364;2022-11-22T15:18:05;10.10;;;3.87;;
6133;SDS011;3098;42.678;23.364;2022-11-22T15:20:40;6.38;;;3.53;;
6133;SDS011;3098;42.678;23.364;2022-11-22T15:23:13;6.93;;;3.37;;
6133;SDS011;3098;42.678;23.364;2022-11-22T15:25:44;4.90;;;2.83;;
6133;SDS011;3098;42.678;23.364;2022-11-22T15:28:16;9.40;;;3.05;;
6133;SDS011;3098;42.678;23.364;2022-11-22T15:30:47;6.37;;;3.07;;
6133;SDS011;3098;42.678;23.364;2022-11-22T15:33:24;4.30;;;2.13;;
6133;SDS011;3098;42.678;23.364;2022-11-22T15:35:58;4.40;;;1.77;;
6133;SDS011;3098;42.678;23.364;2022-11-22T15:38:33;10.13;;;3.22;;
6133;SDS011;3098;42.678;23.364;2022-11-22T15:41:10;3.03;;;2.20;;
6133;SDS011;3098;42.678;23.364;2022-11-22T15:43:40;5.45;;;2.67;;
6133;SDS011;3098;42.678;23.364;2022-11-22T15:46:09;5.60;;;2.67;;